Monticello Municipal Ellis Field Monticello US
ICAO: KLLQ
IATA: LLQ
Category: Medium
Scheduled Services: No

Elevation: 270 ft
TransAlt. 18000 ft.

Airport Communications:
ASOS:133.325
MEMPHIS CNTR:135.875
JONESBORO RDO:122.1
CTAF/UNICOM:122.8

KLLQ Zoom In..

Runways:

(A) RW 03 length 5020 ft width 75 ft
---- / hdg 31

(B) RW 21 length 5020 ft width 75 ft
---- / hdg 211

Location; KLLQ
Day. 15 / Time. 21.53 Zulu
* Altimeter: 29.95
* Temperature: 35° c. 95°f.
* Wind from: 240° Speed 07 kn.
Dewpoint: 24° c.
Visibility: 10 Statute Miles.
Clouds: Few 4700 ft.

KLLQ 152153Z AUTO 24007KT 10SM FEW047 35/24 A2995 RMK AO2 SLP136 T03500239


Wind From 240°
Speed 07 kn.

 
 
jpsmedia.com for Web Design worldairports.se 2018   terms of use